Antonios — SY8410 — position and weather

sailwx.info

Track history (hours):
 
Tides and Currents Weather Stations Pressure Air Temp Water Temp Dewpoint Dewpoint Depression Visibility Wind Speed Wind Dir Waves Ship Positions

Antonios

Last reported at 2016-Aug-15 00:18 UTC. Time now 2016-Aug-24 16:15 UTC.
Position N 37°20' E 025°54'.
Warning: this ship's position is 9 days out of date.

Length 57 m; draft 4 m.

Type: Tanker. MMSI: 239191300.

Date/timePositionNaut miles runAvg speedWind from/ knotsBaromVisibWave heightAir tempDewpointWater temp
2016-Aug-15 00:18N 37°20' E 025°54'16 9.3
2016-Aug-14 22:32N 37°26' E 025°35'7 7.2
2016-Aug-14 21:33N 37°26' E 025°26'0 0.0
2016-Aug-14 20:34N 37°26' E 025°26'0 0.0
2016-Aug-14 19:34N 37°26' E 025°26'0 0.0
2016-Aug-14 18:33N 37°26' E 025°26'0 0.0
2016-Aug-14 17:34N 37°26' E 025°26'0 0.0
2016-Aug-14 16:34N 37°26' E 025°26'0 0.0
2016-Aug-14 15:34N 37°26' E 025°26'0 0.0
2016-Aug-14 14:34N 37°26' E 025°26'0 0.0
2016-Aug-14 13:34N 37°26' E 025°26'0 0.0
2016-Aug-14 12:33N 37°26' E 025°26'0 0.0
2016-Aug-14 11:34N 37°26' E 025°26'0 0.0
2016-Aug-14 10:34N 37°26' E 025°26'0 0.0
2016-Aug-14 09:34N 37°26' E 025°26'0 0.0
2016-Aug-14 08:34N 37°26' E 025°26'0 0.0
2016-Aug-14 07:34N 37°26' E 025°26'0 0.0
2016-Aug-14 06:34N 37°26' E 025°26'0 0.0
2016-Aug-14 04:34N 37°26' E 025°26'2 2.2
2016-Aug-14 03:34N 37°25' E 025°29'9 9.2
2016-Aug-14 02:34N 37°22' E 025°18'8 8.4
2016-Aug-14 01:34N 37°25' E 025°07'11 9.5
2016-Aug-14 00:27N 37°31' E 024°57'8 9.2
2016-Aug-13 23:34N 37°33' E 024°47'9 9.0
2016-Aug-13 22:33N 37°36' E 024°36'9 9.1
2016-Aug-13 21:33N 37°42' E 024°28'7 7.2
2016-Aug-13 20:32N 37°42' E 024°19'10 7.6
2016-Aug-13 19:12N 37°38' E 024°07'6 8.9
2016-Aug-13 18:30N 37°38' E 023°59'9 9.6
2016-Aug-13 17:33N 37°40' E 023°48'9 9.2
2016-Aug-13 16:34N 37°45' E 023°39'9 9.3
2016-Aug-13 15:34N 37°50' E 023°29'1010.1
2016-Aug-13 14:34N 37°53' E 023°16'9 8.9
2016-Aug-13 13:34N 37°55' E 023°05'0 0.0
2016-Aug-13 12:33N 37°55' E 023°05'0 0.0
2016-Aug-13 11:32N 37°55' E 023°05'0 0.0
2016-Aug-13 10:33N 37°55' E 023°05'0 0.0
2016-Aug-13 09:33N 37°55' E 023°05'0 0.0
2016-Aug-13 08:33N 37°55' E 023°05'0 0.0
2016-Aug-13 07:33N 37°55' E 023°05'0 0.1
2016-Aug-13 06:34N 37°55' E 023°05'9 9.2
2016-Aug-13 05:33N 37°52' E 023°17'1110.7
2016-Aug-13 04:33N 37°50' E 023°30'9 8.6
2016-Aug-13 03:34N 37°48' E 023°40'10 9.7
2016-Aug-13 02:34N 37°40' E 023°47'10 9.6
2016-Aug-13 01:34N 37°34' E 023°56'11 8.3
2016-Aug-13 00:15N 37°24' E 024°02'6 8.3
2016-Aug-12 23:31N 37°18' E 024°05'80 1.8
2016-Aug-11 02:34N 37°11' E 025°46'1110.5
2016-Aug-11 01:30N 37°14' E 025°32'9 9.8
2016-Aug-11 00:34N 37°16' E 025°21'1010.4
2016-Aug-10 23:34N 37°18' E 025°08'1110.7
2016-Aug-10 22:34N 37°20' E 024°55'32 9.7
2016-Aug-10 19:15N 37°31' E 024°17'9 9.8
2016-Aug-10 18:20N 37°34' E 024°06'7 9.2
2016-Aug-10 17:33N 37°35' E 023°57'1010.1
2016-Aug-10 16:33N 37°39' E 023°45'10 9.6
2016-Aug-10 15:34N 37°47' E 023°38'10 9.5
2016-Aug-10 14:34N 37°51' E 023°27'1010.4
2016-Aug-10 13:34N 37°53' E 023°14'7 7.3
2016-Aug-10 12:33N 37°55' E 023°05'0 0.0
2016-Aug-10 11:33N 37°55' E 023°05'0 0.0
2016-Aug-10 10:33N 37°55' E 023°05'0 0.0
2016-Aug-10 09:33N 37°55' E 023°05'0 0.0
2016-Aug-10 08:33N 37°55' E 023°05'0 0.0
2016-Aug-10 07:33N 37°55' E 023°05'0 0.0
2016-Aug-10 06:33N 37°55' E 023°05'0 0.0
2016-Aug-10 05:33N 37°55' E 023°05'0 0.0
2016-Aug-10 04:33N 37°55' E 023°05'0 0.0
2016-Aug-10 03:34N 37°55' E 023°05'1 1.0
2016-Aug-10 02:33N 37°55' E 023°04'0 0.0
2016-Aug-10 01:33N 37°55' E 023°04'0 0.0
2016-Aug-10 00:33N 37°55' E 023°04'0 0.0
2016-Aug-09 23:34N 37°55' E 023°04'0 0.0
2016-Aug-09 22:32N 37°55' E 023°04'0 0.0
2016-Aug-09 21:33N 37°55' E 023°04'0 0.0
2016-Aug-09 20:32N 37°55' E 023°04'0 0.0
2016-Aug-09 19:33N 37°55' E 023°04'2 2.0
2016-Aug-09 18:34N 37°54' E 023°06'1110.9
2016-Aug-09 17:33N 37°45' E 023°15'1010.0
2016-Aug-09 16:33N 37°39' E 023°25'1010.5
2016-Aug-09 15:34N 37°34' E 023°37'1111.3
2016-Aug-09 14:34N 37°28' E 023°49'  
2016-Aug-05 07:24N 37°15' E 025°51'13 9.9
2016-Aug-05 06:08N 37°19' E 025°37'14 8.6
2016-Aug-05 04:33N 37°16' E 025°20'9 9.3
2016-Aug-05 03:34N 37°18' E 025°09'9 9.3
2016-Aug-05 02:34N 37°20' E 024°57'9 9.3
2016-Aug-05 01:33N 37°23' E 024°46'  
Track history (hours):
 
Tides and Currents Weather Stations Pressure Air Temp Water Temp Dewpoint Dewpoint Depression Visibility Wind Speed Wind Dir Waves Ship Positions

Antonios

Last reported at 2016-Aug-15 00:18 UTC. Time now 2016-Aug-24 16:15 UTC.
Position N 37°20' E 025°54'.
Warning: this ship's position is 9 days out of date.

Length 57 m; draft 4 m.

Type: Tanker. MMSI: 239191300.

Date/timePositionNaut miles runAvg speedWind from/ knotsBaromVisibWave heightAir tempDewpointWater temp
2016-Aug-15 00:18N 37°20' E 025°54'16 9.3
2016-Aug-14 22:32N 37°26' E 025°35'7 7.2
2016-Aug-14 21:33N 37°26' E 025°26'0 0.0
2016-Aug-14 20:34N 37°26' E 025°26'0 0.0
2016-Aug-14 19:34N 37°26' E 025°26'0 0.0
2016-Aug-14 18:33N 37°26' E 025°26'0 0.0
2016-Aug-14 17:34N 37°26' E 025°26'0 0.0
2016-Aug-14 16:34N 37°26' E 025°26'0 0.0
2016-Aug-14 15:34N 37°26' E 025°26'0 0.0
2016-Aug-14 14:34N 37°26' E 025°26'0 0.0
2016-Aug-14 13:34N 37°26' E 025°26'0 0.0
2016-Aug-14 12:33N 37°26' E 025°26'0 0.0
2016-Aug-14 11:34N 37°26' E 025°26'0 0.0
2016-Aug-14 10:34N 37°26' E 025°26'0 0.0
2016-Aug-14 09:34N 37°26' E 025°26'0 0.0
2016-Aug-14 08:34N 37°26' E 025°26'0 0.0
2016-Aug-14 07:34N 37°26' E 025°26'0 0.0
2016-Aug-14 06:34N 37°26' E 025°26'0 0.0
2016-Aug-14 04:34N 37°26' E 025°26'2 2.2
2016-Aug-14 03:34N 37°25' E 025°29'9 9.2
2016-Aug-14 02:34N 37°22' E 025°18'8 8.4
2016-Aug-14 01:34N 37°25' E 025°07'11 9.5
2016-Aug-14 00:27N 37°31' E 024°57'8 9.2
2016-Aug-13 23:34N 37°33' E 024°47'9 9.0
2016-Aug-13 22:33N 37°36' E 024°36'9 9.1
2016-Aug-13 21:33N 37°42' E 024°28'7 7.2
2016-Aug-13 20:32N 37°42' E 024°19'10 7.6
2016-Aug-13 19:12N 37°38' E 024°07'6 8.9
2016-Aug-13 18:30N 37°38' E 023°59'9 9.6
2016-Aug-13 17:33N 37°40' E 023°48'9 9.2
2016-Aug-13 16:34N 37°45' E 023°39'9 9.3
2016-Aug-13 15:34N 37°50' E 023°29'1010.1
2016-Aug-13 14:34N 37°53' E 023°16'9 8.9
2016-Aug-13 13:34N 37°55' E 023°05'0 0.0
2016-Aug-13 12:33N 37°55' E 023°05'0 0.0
2016-Aug-13 11:32N 37°55' E 023°05'0 0.0
2016-Aug-13 10:33N 37°55' E 023°05'0 0.0
2016-Aug-13 09:33N 37°55' E 023°05'0 0.0
2016-Aug-13 08:33N 37°55' E 023°05'0 0.0
2016-Aug-13 07:33N 37°55' E 023°05'0 0.1
2016-Aug-13 06:34N 37°55' E 023°05'9 9.2
2016-Aug-13 05:33N 37°52' E 023°17'1110.7
2016-Aug-13 04:33N 37°50' E 023°30'9 8.6
2016-Aug-13 03:34N 37°48' E 023°40'10 9.7
2016-Aug-13 02:34N 37°40' E 023°47'10 9.6
2016-Aug-13 01:34N 37°34' E 023°56'11 8.3
2016-Aug-13 00:15N 37°24' E 024°02'6 8.3
2016-Aug-12 23:31N 37°18' E 024°05'80 1.8
2016-Aug-11 02:34N 37°11' E 025°46'1110.5
2016-Aug-11 01:30N 37°14' E 025°32'9 9.8
2016-Aug-11 00:34N 37°16' E 025°21'1010.4
2016-Aug-10 23:34N 37°18' E 025°08'1110.7
2016-Aug-10 22:34N 37°20' E 024°55'32 9.7
2016-Aug-10 19:15N 37°31' E 024°17'9 9.8
2016-Aug-10 18:20N 37°34' E 024°06'7 9.2
2016-Aug-10 17:33N 37°35' E 023°57'1010.1
2016-Aug-10 16:33N 37°39' E 023°45'10 9.6
2016-Aug-10 15:34N 37°47' E 023°38'10 9.5
2016-Aug-10 14:34N 37°51' E 023°27'1010.4
2016-Aug-10 13:34N 37°53' E 023°14'7 7.3
2016-Aug-10 12:33N 37°55' E 023°05'0 0.0
2016-Aug-10 11:33N 37°55' E 023°05'0 0.0
2016-Aug-10 10:33N 37°55' E 023°05'0 0.0
2016-Aug-10 09:33N 37°55' E 023°05'0 0.0
2016-Aug-10 08:33N 37°55' E 023°05'0 0.0
2016-Aug-10 07:33N 37°55' E 023°05'0 0.0
2016-Aug-10 06:33N 37°55' E 023°05'0 0.0
2016-Aug-10 05:33N 37°55' E 023°05'0 0.0
2016-Aug-10 04:33N 37°55' E 023°05'0 0.0
2016-Aug-10 03:34N 37°55' E 023°05'1 1.0
2016-Aug-10 02:33N 37°55' E 023°04'0 0.0
2016-Aug-10 01:33N 37°55' E 023°04'0 0.0
2016-Aug-10 00:33N 37°55' E 023°04'0 0.0
2016-Aug-09 23:34N 37°55' E 023°04'0 0.0
2016-Aug-09 22:32N 37°55' E 023°04'0 0.0
2016-Aug-09 21:33N 37°55' E 023°04'0 0.0
2016-Aug-09 20:32N 37°55' E 023°04'0 0.0
2016-Aug-09 19:33N 37°55' E 023°04'2 2.0
2016-Aug-09 18:34N 37°54' E 023°06'1110.9
2016-Aug-09 17:33N 37°45' E 023°15'1010.0
2016-Aug-09 16:33N 37°39' E 023°25'1010.5
2016-Aug-09 15:34N 37°34' E 023°37'1111.3
2016-Aug-09 14:34N 37°28' E 023°49'  
2016-Aug-05 07:24N 37°15' E 025°51'13 9.9
2016-Aug-05 06:08N 37°19' E 025°37'14 8.6
2016-Aug-05 04:33N 37°16' E 025°20'9 9.3
2016-Aug-05 03:34N 37°18' E 025°09'9 9.3
2016-Aug-05 02:34N 37°20' E 024°57'9 9.3
2016-Aug-05 01:33N 37°23' E 024°46'  

Dump ship's entire track history